Time;durP1;ratioP1;P1;durP2;ratioP2;P2;SDS_P1;SDS_P2;PMS_P1;PMS_P2;Temp;Humidity;BMP_temperature;BMP_pressure;BME280_temperature;BME280_humidity;BME280_pressure;Samples;Min_cycle;Max_cycle;Signal;HPM_P1;HPM_P2
2021/08/27 00:00:32;;;;;;;6.03;5.00;;;18.90;99.90;;;;;;5054935;28;20036;-81
2021/08/27 00:02:58;;;;;;;7.10;5.13;;;18.90;99.90;;;;;;5058846;28;20025;-80
2021/08/27 00:05:23;;;;;;;6.45;5.20;;;18.90;99.90;;;;;;5056370;28;20017;-80
2021/08/27 00:07:49;;;;;;;6.72;5.50;;;18.90;99.90;;;;;;5070420;28;20024;-80
2021/08/27 00:10:15;;;;;;;6.53;5.32;;;18.90;99.90;;;;;;5069518;28;20051;-80
2021/08/27 00:12:40;;;;;;;6.85;5.50;;;18.90;99.90;;;;;;5069263;28;20111;-80
2021/08/27 00:15:08;;;;;;;6.32;4.93;;;18.90;99.90;;;;;;5069093;28;20390;-80
2021/08/27 00:17:34;;;;;;;8.90;5.38;;;18.80;99.90;;;;;;5057219;28;20025;-80
2021/08/27 00:20:00;;;;;;;7.57;5.53;;;18.80;99.90;;;;;;5067736;28;20094;-80
2021/08/27 00:22:27;;;;;;;7.05;5.47;;;18.80;99.90;;;;;;5070556;28;20025;-80
2021/08/27 00:24:53;;;;;;;7.07;5.72;;;18.70;99.90;;;;;;5071365;28;20074;-80
2021/08/27 00:27:19;;;;;;;9.43;5.90;;;18.70;99.90;;;;;;5069351;28;20103;-80
2021/08/27 00:29:45;;;;;;;6.80;5.88;;;18.70;99.90;;;;;;5069454;28;20036;-81
2021/08/27 00:32:10;;;;;;;6.05;4.97;;;18.70;99.90;;;;;;5044693;28;20477;-80
2021/08/27 00:34:36;;;;;;;6.13;5.15;;;18.70;99.90;;;;;;5060927;28;20036;-80
2021/08/27 00:37:04;;;;;;;6.13;5.18;;;18.60;99.90;;;;;;5056908;28;20036;-80
2021/08/27 00:39:30;;;;;;;8.10;5.55;;;18.50;99.90;;;;;;5071444;28;20029;-80
2021/08/27 00:41:56;;;;;;;7.43;5.47;;;18.50;99.90;;;;;;5070402;28;20424;-80
2021/08/27 00:44:21;;;;;;;9.63;5.82;;;18.40;99.90;;;;;;5072583;28;20029;-80
2021/08/27 00:46:47;;;;;;;7.43;5.28;;;18.40;99.90;;;;;;5072350;28;20032;-80
2021/08/27 00:49:14;;;;;;;7.57;5.93;;;18.50;99.90;;;;;;5072737;28;20032;-80
2021/08/27 00:51:40;;;;;;;8.10;5.50;;;18.40;99.90;;;;;;5072414;28;20023;-80
2021/08/27 00:54:06;;;;;;;10.55;5.90;;;18.40;99.90;;;;;;5071993;28;20435;-80
2021/08/27 00:56:32;;;;;;;5.65;4.93;;;18.40;99.90;;;;;;5073691;28;20025;-80
2021/08/27 00:58:58;;;;;;;6.72;5.40;;;18.40;99.90;;;;;;5072143;28;20099;-80
2021/08/27 01:01:24;;;;;;;7.60;5.43;;;18.40;99.90;;;;;;5072225;28;20048;-80
2021/08/27 01:03:50;;;;;;;8.15;5.20;;;18.40;99.90;;;;;;5074410;28;20028;-80
2021/08/27 01:06:26;;;;;;;5.65;4.85;;;18.30;99.90;;;;;;5072678;28;20025;-80
2021/08/27 01:09:00;;;;;;;7.03;5.25;;;18.30;99.90;;;;;;5072489;28;20069;-80
2021/08/27 01:11:35;;;;;;;6.50;5.15;;;18.40;99.90;;;;;;5072824;28;20025;-80
2021/08/27 01:14:34;;;;;;;6.95;5.50;;;18.30;99.90;;;;;;5072211;28;20207;-80
2021/08/27 01:17:07;;;;;;;6.13;5.28;;;18.20;99.90;;;;;;5038314;28;20063;-80
2021/08/27 01:20:06;;;;;;;6.45;4.95;;;18.20;99.90;;;;;;5066241;28;20028;-80
2021/08/27 01:23:12;;;;;;;7.70;5.32;;;18.20;99.90;;;;;;5063975;28;20059;-80
2021/08/27 01:25:40;;;;;;;7.30;4.90;;;18.20;99.90;;;;;;5063370;28;20032;-80
2021/08/27 01:28:08;;;;;;;6.05;4.80;;;18.10;99.90;;;;;;5057872;28;20021;-80
2021/08/27 01:30:48;;;;;;;5.85;4.95;;;18.10;99.90;;;;;;5072123;28;20123;-80
2021/08/27 01:33:20;;;;;;;7.70;4.63;;;18.10;99.90;;;;;;5073368;28;20070;-80
2021/08/27 01:35:54;;;;;;;6.22;4.70;;;18.00;99.90;;;;;;5064768;28;20025;-80
2021/08/27 01:38:23;;;;;;;6.07;5.00;;;18.10;99.90;;;;;;5059274;28;20036;-80
2021/08/27 01:40:52;;;;;;;5.65;4.25;;;18.00;99.90;;;;;;5072069;28;20391;-80
2021/08/27 01:43:19;;;;;;;6.53;4.72;;;18.00;99.90;;;;;;5071731;28;20123;-80
2021/08/27 01:45:46;;;;;;;6.45;4.55;;;17.90;99.90;;;;;;5071402;28;20025;-80
2021/08/27 01:48:12;;;;;;;6.10;4.78;;;17.80;99.90;;;;;;5071009;28;20024;-80
2021/08/27 01:50:39;;;;;;;7.28;4.70;;;17.80;99.90;;;;;;5079999;28;20250;-80
2021/08/27 01:53:05;;;;;;;7.63;4.47;;;17.80;99.90;;;;;;5072888;28;20121;-80
2021/08/27 01:55:36;;;;;;;6.53;4.40;;;17.80;99.90;;;;;;5073923;28;20021;-80
2021/08/27 01:58:04;;;;;;;6.93;4.55;;;17.70;99.90;;;;;;5077101;28;20095;-80
2021/08/27 02:00:30;;;;;;;7.30;4.97;;;17.70;99.90;;;;;;5075532;28;20025;-80
2021/08/27 02:02:58;;;;;;;5.97;4.22;;;17.70;99.90;;;;;;5071663;28;20024;-80
2021/08/27 02:05:25;;;;;;;6.57;5.07;;;17.70;99.90;;;;;;5071075;28;20836;-80
2021/08/27 02:07:52;;;;;;;6.85;4.82;;;17.60;99.90;;;;;;5073825;28;20020;-80
2021/08/27 02:10:19;;;;;;;6.28;4.43;;;17.60;99.90;;;;;;5070916;28;20021;-80
2021/08/27 02:12:44;;;;;;;8.00;4.35;;;17.60;99.90;;;;;;5070495;28;20032;-80
2021/08/27 02:15:11;;;;;;;6.88;4.35;;;17.60;99.90;;;;;;5070851;28;20362;-80
2021/08/27 02:17:37;;;;;;;10.63;5.03;;;17.50;99.90;;;;;;5058454;28;20036;-80
2021/08/27 02:20:03;;;;;;;6.97;4.30;;;17.40;99.90;;;;;;5071368;28;20099;-80
2021/08/27 02:22:32;;;;;;;7.78;4.50;;;17.40;99.90;;;;;;5071038;28;20023;-80
2021/08/27 02:25:01;;;;;;;7.03;4.00;;;17.40;99.90;;;;;;5070595;28;20020;-80
2021/08/27 02:27:28;;;;;;;5.90;4.00;;;17.40;99.90;;;;;;5070717;28;20508;-80
2021/08/27 02:29:56;;;;;;;8.43;4.38;;;17.40;99.90;;;;;;5061786;28;20047;-80
2021/08/27 02:32:25;;;;;;;8.02;4.20;;;17.30;99.90;;;;;;5090436;28;20051;-80
2021/08/27 02:34:51;;;;;;;7.20;4.53;;;17.40;99.90;;;;;;5090564;28;20024;-80
2021/08/27 02:37:20;;;;;;;8.82;4.30;;;17.40;99.90;;;;;;5077976;28;20074;-80
2021/08/27 02:39:46;;;;;;;6.00;3.88;;;17.30;99.90;;;;;;5090517;28;20027;-80
2021/08/27 02:42:12;;;;;;;7.07;4.00;;;17.30;99.90;;;;;;5090226;28;20028;-80
2021/08/27 02:44:38;;;;;;;7.45;3.58;;;17.30;99.90;;;;;;5091614;28;20032;-80
2021/08/27 02:47:05;;;;;;;8.45;4.25;;;17.30;99.90;;;;;;5077537;28;20128;-80
2021/08/27 02:49:32;;;;;;;9.05;4.18;;;17.20;99.90;;;;;;5090589;28;20035;-80
2021/08/27 02:52:12;;;;;;;7.97;3.70;;;17.20;99.90;;;;;;5094191;28;20091;-80
2021/08/27 02:54:53;;;;;;;6.68;4.25;;;17.20;99.90;;;;;;5090611;28;20028;-80
2021/08/27 02:57:21;;;;;;;7.28;4.28;;;17.20;99.90;;;;;;5076461;28;20012;-80
2021/08/27 02:59:48;;;;;;;8.70;4.03;;;17.20;99.90;;;;;;5091668;28;20024;-79
2021/08/27 03:02:16;;;;;;;8.40;4.13;;;17.20;99.90;;;;;;5091075;28;20028;-80
2021/08/27 03:04:55;;;;;;;8.32;3.92;;;17.10;99.90;;;;;;5094387;28;20070;-80
2021/08/27 03:07:25;;;;;;;8.43;4.25;;;17.20;99.90;;;;;;5094514;28;20017;-80
2021/08/27 03:10:18;;;;;;;10.93;4.32;;;17.10;99.90;;;;;;5089855;28;20020;-80
2021/08/27 03:13:02;;;;;;;9.00;4.30;;;17.10;99.90;;;;;;5089816;28;20111;-80
2021/08/27 03:15:37;;;;;;;8.57;4.25;;;17.00;99.90;;;;;;5090068;28;20181;-80
2021/08/27 03:18:08;;;;;;;7.35;3.78;;;17.00;99.90;;;;;;5075175;28;20064;-80
2021/08/27 03:20:51;;;;;;;5.95;3.78;;;16.90;99.90;;;;;;5091663;28;20023;-80
2021/08/27 03:23:18;;;;;;;8.90;4.53;;;17.00;99.90;;;;;;5088955;28;20057;-81
2021/08/27 03:25:46;;;;;;;7.53;3.80;;;17.00;99.90;;;;;;5089834;28;20024;-80
2021/08/27 03:28:20;;;;;;;8.60;4.20;;;16.90;99.90;;;;;;5091709;28;20032;-80
2021/08/27 03:30:51;;;;;;;9.57;3.92;;;16.80;99.90;;;;;;5082245;28;20048;-80
2021/08/27 03:33:18;;;;;;;7.75;3.70;;;16.80;99.90;;;;;;5089970;28;20040;-80
2021/08/27 03:35:48;;;;;;;9.13;3.83;;;16.80;99.90;;;;;;5090348;28;20019;-80
2021/08/27 03:38:14;;;;;;;6.55;3.72;;;16.70;99.90;;;;;;5090236;28;20474;-80
2021/08/27 03:40:42;;;;;;;8.60;4.00;;;16.70;99.90;;;;;;5089865;28;20058;-80
2021/08/27 03:43:09;;;;;;;9.50;3.42;;;16.70;99.90;;;;;;5089779;28;20101;-80
2021/08/27 03:45:37;;;;;;;7.13;3.40;;;16.60;99.90;;;;;;5090123;28;20412;-80
2021/08/27 03:48:03;;;;;;;10.35;3.70;;;16.50;99.90;;;;;;5093777;28;20035;-80
2021/08/27 03:50:29;;;;;;;7.15;3.60;;;16.60;99.90;;;;;;5089671;28;20282;-80
2021/08/27 03:52:56;;;;;;;12.13;4.15;;;16.60;99.90;;;;;;5090455;28;20301;-80
2021/08/27 03:55:22;;;;;;;8.38;4.03;;;16.50;99.90;;;;;;5090092;28;20474;-80
2021/08/27 03:57:50;;;;;;;7.85;3.85;;;16.50;99.90;;;;;;5089926;28;20268;-80
2021/08/27 04:00:23;;;;;;;10.65;4.05;;;16.50;99.90;;;;;;5089852;28;20165;-80
2021/08/27 04:02:53;;;;;;;8.20;3.80;;;16.50;99.90;;;;;;5075272;28;20065;-80
2021/08/27 04:05:22;;;;;;;6.75;3.85;;;16.40;99.90;;;;;;5091001;28;20016;-80
2021/08/27 04:07:50;;;;;;;7.15;3.70;;;16.40;99.90;;;;;;5090046;28;20508;-80
2021/08/27 04:10:21;;;;;;;8.07;3.47;;;16.50;99.90;;;;;;5093768;28;20035;-80
2021/08/27 04:12:48;;;;;;;9.80;3.58;;;16.40;99.90;;;;;;5091592;28;20392;-80
2021/08/27 04:15:16;;;;;;;9.35;3.70;;;16.40;99.90;;;;;;5089530;28;20432;-80
2021/08/27 04:17:42;;;;;;;11.93;3.90;;;16.20;99.90;;;;;;5090649;28;20020;-80
2021/08/27 04:20:12;;;;;;;6.55;3.20;;;16.30;99.90;;;;;;5093351;28;20024;-80
2021/08/27 04:22:38;;;;;;;11.30;3.72;;;16.30;99.90;;;;;;5095103;28;20032;-80
2021/08/27 04:25:04;;;;;;;7.82;3.90;;;16.30;99.90;;;;;;5089760;28;20504;-80
2021/08/27 04:27:30;;;;;;;9.77;3.50;;;16.20;99.90;;;;;;5084210;28;20370;-80
2021/08/27 04:29:56;;;;;;;6.18;3.50;;;16.20;99.90;;;;;;5087518;28;20044;-80
2021/08/27 04:32:22;;;;;;;6.13;3.72;;;16.10;99.90;;;;;;5074003;28;20097;-80
2021/08/27 04:34:47;;;;;;;8.63;3.80;;;16.10;99.90;;;;;;5073322;28;20047;-80
2021/08/27 04:37:13;;;;;;;9.55;2.90;;;16.00;99.90;;;;;;5072543;28;20024;-81
2021/08/27 04:39:39;;;;;;;8.02;3.53;;;16.00;99.90;;;;;;5077650;28;20043;-80
2021/08/27 04:42:05;;;;;;;8.57;3.47;;;16.00;99.90;;;;;;5072675;28;20025;-80
2021/08/27 04:44:31;;;;;;;14.63;3.90;;;16.00;99.90;;;;;;5072772;28;20428;-80
2021/08/27 04:46:57;;;;;;;17.92;3.67;;;15.90;99.90;;;;;;5074621;28;20043;-80
2021/08/27 04:49:23;;;;;;;9.50;3.55;;;15.90;99.90;;;;;;5072588;28;20021;-80
2021/08/27 04:51:49;;;;;;;11.25;3.72;;;15.90;99.90;;;;;;5072646;28;20453;-80
2021/08/27 04:54:15;;;;;;;10.95;3.65;;;15.90;99.90;;;;;;5078798;28;20044;-80
2021/08/27 04:56:41;;;;;;;7.25;3.35;;;15.80;99.90;;;;;;5060822;28;20112;-80
2021/08/27 04:59:06;;;;;;;5.82;3.60;;;15.80;99.90;;;;;;5066476;28;20024;-80
2021/08/27 05:01:32;;;;;;;8.20;3.28;;;15.80;99.90;;;;;;5062304;28;20021;-80
2021/08/27 05:03:58;;;;;;;8.45;3.45;;;15.80;99.90;;;;;;5074083;28;20032;-80
2021/08/27 05:06:24;;;;;;;7.80;3.63;;;15.90;99.90;;;;;;5077424;28;20024;-80
2021/08/27 05:08:49;;;;;;;9.35;3.70;;;15.90;99.90;;;;;;5072346;28;20032;-80
2021/08/27 05:11:15;;;;;;;7.93;3.25;;;15.80;99.90;;;;;;5071985;28;20025;-80
2021/08/27 05:13:41;;;;;;;9.13;3.85;;;15.80;99.90;;;;;;5073969;28;20032;-80
2021/08/27 05:16:07;;;;;;;8.68;3.60;;;15.80;99.90;;;;;;5073060;28;20043;-80
2021/08/27 05:18:32;;;;;;;9.93;3.25;;;15.80;99.90;;;;;;5057715;28;20013;-81
2021/08/27 05:20:58;;;;;;;10.32;3.40;;;15.80;99.90;;;;;;5060221;28;20029;-81
2021/08/27 05:23:24;;;;;;;7.13;3.38;;;15.90;99.90;;;;;;5069580;28;20100;-81
2021/08/27 05:25:50;;;;;;;10.60;3.60;;;15.90;99.90;;;;;;5072519;28;20040;-81
2021/08/27 05:28:16;;;;;;;8.55;3.00;;;15.90;99.90;;;;;;5072202;28;20024;-81
2021/08/27 05:30:42;;;;;;;10.80;3.25;;;15.90;99.90;;;;;;5079094;28;20086;-80
2021/08/27 05:33:08;;;;;;;10.23;3.55;;;16.00;99.90;;;;;;5072836;28;20086;-80
2021/08/27 05:35:33;;;;;;;4.82;2.92;;;16.10;99.90;;;;;;5071744;28;20020;-80
2021/08/27 05:37:59;;;;;;;7.60;3.30;;;16.20;99.90;;;;;;5071809;28;20021;-81
2021/08/27 05:40:26;;;;;;;8.32;3.20;;;16.20;99.90;;;;;;5068667;28;20020;-80
2021/08/27 05:42:52;;;;;;;8.48;3.25;;;16.20;99.90;;;;;;5071380;28;20054;-80
2021/08/27 05:45:18;;;;;;;11.52;3.47;;;16.20;99.90;;;;;;5050492;28;20056;-81
2021/08/27 05:47:44;;;;;;;9.25;2.92;;;16.20;99.90;;;;;;5072599;28;20501;-80
2021/08/27 05:50:13;;;;;;;8.63;3.30;;;16.20;99.90;;;;;;5082107;28;20037;-80
2021/08/27 05:52:39;;;;;;;11.27;3.03;;;16.20;99.90;;;;;;5082135;28;20032;-80
2021/08/27 05:55:06;;;;;;;10.38;3.40;;;16.20;99.90;;;;;;5081802;28;20021;-81
2021/08/27 05:57:32;;;;;;;8.23;3.38;;;16.20;99.90;;;;;;5082539;28;20090;-81
2021/08/27 05:59:58;;;;;;;8.30;3.08;;;16.30;99.90;;;;;;5081988;28;20027;-81
2021/08/27 06:02:24;;;;;;;9.63;3.83;;;16.30;99.90;;;;;;5081702;28;20032;-81
2021/08/27 06:04:49;;;;;;;5.75;3.03;;;16.30;99.90;;;;;;5082286;28;20159;-83
2021/08/27 06:07:15;;;;;;;5.63;3.05;;;16.20;99.90;;;;;;5079499;28;20059;-81
2021/08/27 06:09:42;;;;;;;9.98;2.90;;;16.20;99.90;;;;;;5069993;28;20024;-81
2021/08/27 06:12:08;;;;;;;4.93;2.88;;;16.20;99.90;;;;;;5081410;28;20300;-81
2021/08/27 06:14:34;;;;;;;11.38;3.75;;;16.30;99.90;;;;;;5080657;28;20035;-81
2021/08/27 06:17:00;;;;;;;7.70;2.83;;;16.40;99.90;;;;;;5074453;28;20009;-81
2021/08/27 06:19:25;;;;;;;14.35;2.80;;;16.50;99.90;;;;;;5074619;28;20022;-81
2021/08/27 06:21:51;;;;;;;6.55;2.67;;;16.60;99.90;;;;;;5063436;28;20078;-81
2021/08/27 06:24:17;;;;;;;8.32;2.95;;;16.70;99.90;;;;;;5064077;28;20025;-81
2021/08/27 06:26:42;;;;;;;8.77;3.03;;;16.60;99.90;;;;;;5068835;28;20016;-81
2021/08/27 06:29:08;;;;;;;7.28;3.15;;;16.60;99.90;;;;;;5082721;28;20017;-82
2021/08/27 06:31:35;;;;;;;7.18;2.83;;;16.70;99.90;;;;;;5081850;28;20054;-81
2021/08/27 06:34:01;;;;;;;10.80;2.92;;;16.80;99.90;;;;;;5082019;28;20109;-81
2021/08/27 06:36:27;;;;;;;7.32;2.95;;;16.90;99.90;;;;;;5082050;28;20036;-81
2021/08/27 06:38:52;;;;;;;9.35;3.35;;;17.00;99.90;;;;;;5081259;28;20236;-81
2021/08/27 06:41:18;;;;;;;9.52;2.85;;;16.80;99.90;;;;;;5081147;28;20226;-81
2021/08/27 06:43:45;;;;;;;8.20;2.90;;;16.80;99.90;;;;;;5080612;28;20088;-81
2021/08/27 06:46:17;;;;;;;6.18;2.72;;;16.80;99.90;;;;;;5081111;28;20040;-82
2021/08/27 06:48:43;;;;;;;5.75;2.88;;;16.90;99.90;;;;;;5081199;28;20300;-81
2021/08/27 06:51:09;;;;;;;9.18;2.60;;;16.80;99.90;;;;;;5080966;28;20024;-81
2021/08/27 06:53:35;;;;;;;5.35;2.95;;;16.80;99.90;;;;;;5080886;28;20086;-81
2021/08/27 06:56:01;;;;;;;8.77;2.83;;;16.80;99.90;;;;;;5080931;28;20251;-81
2021/08/27 06:58:26;;;;;;;7.25;2.75;;;16.90;99.90;;;;;;5081110;28;20043;-81
2021/08/27 07:00:52;;;;;;;9.35;3.38;;;16.90;99.90;;;;;;5081069;28;20193;-81
2021/08/27 07:03:18;;;;;;;7.57;2.90;;;16.80;99.90;;;;;;5081066;28;20028;-81
2021/08/27 07:05:44;;;;;;;7.53;3.05;;;16.80;99.90;;;;;;5081810;28;20028;-81
2021/08/27 07:08:10;;;;;;;9.45;3.13;;;16.90;99.90;;;;;;5081373;28;20024;-82
2021/08/27 07:10:35;;;;;;;7.13;2.75;;;17.00;99.90;;;;;;5081324;28;20025;-81
2021/08/27 07:13:02;;;;;;;8.57;2.85;;;17.10;99.90;;;;;;5080642;28;20056;-81
2021/08/27 07:15:28;;;;;;;8.15;2.60;;;17.20;99.90;;;;;;5068098;28;20039;-81
2021/08/27 07:17:55;;;;;;;8.07;2.78;;;17.20;99.90;;;;;;5065469;28;20024;-81
2021/08/27 07:20:22;;;;;;;6.25;2.50;;;17.20;99.90;;;;;;5074744;28;20053;-81
2021/08/27 07:22:48;;;;;;;6.95;2.45;;;17.30;99.90;;;;;;5073529;28;20243;-81
2021/08/27 07:25:14;;;;;;;6.53;2.80;;;17.40;99.90;;;;;;5066265;28;20213;-82
2021/08/27 07:27:40;;;;;;;7.65;2.60;;;17.50;99.90;;;;;;5063089;28;20024;-82
2021/08/27 07:30:07;;;;;;;11.15;3.28;;;17.60;99.90;;;;;;5077483;28;20052;-82
2021/08/27 07:32:33;;;;;;;8.13;2.72;;;17.60;99.90;;;;;;5100233;28;20048;-82
2021/08/27 07:34:59;;;;;;;6.93;2.58;;;17.70;99.90;;;;;;5101156;28;20271;-82
2021/08/27 07:37:25;;;;;;;7.30;2.88;;;17.70;99.90;;;;;;5100957;28;20109;-82
2021/08/27 07:39:51;;;;;;;7.03;2.53;;;17.70;99.90;;;;;;5100925;28;20020;-81
2021/08/27 07:42:17;;;;;;;8.15;2.90;;;17.80;99.90;;;;;;5100652;28;20020;-81
2021/08/27 07:44:42;;;;;;;9.82;2.83;;;17.90;99.90;;;;;;5101188;28;20085;-82
2021/08/27 07:47:09;;;;;;;10.20;2.90;;;17.90;99.90;;;;;;5101011;28;20008;-82
2021/08/27 07:49:34;;;;;;;10.93;3.25;;;18.00;99.90;;;;;;5101445;28;20028;-81
2021/08/27 07:52:02;;;;;;;6.88;2.47;;;18.00;99.90;;;;;;5100954;28;20207;-81
2021/08/27 07:54:28;;;;;;;8.65;2.92;;;18.00;99.90;;;;;;5097899;28;20047;-81
2021/08/27 07:56:54;;;;;;;7.80;2.60;;;18.20;99.90;;;;;;5099239;28;20020;-82
2021/08/27 07:59:20;;;;;;;13.30;3.10;;;18.30;99.90;;;;;;5105638;28;20220;-82
2021/08/27 08:01:46;;;;;;;7.97;2.25;;;18.30;99.90;;;;;;5105159;28;20023;-82
2021/08/27 08:04:13;;;;;;;10.35;2.50;;;18.50;99.90;;;;;;5087159;28;20068;-82
2021/08/27 08:06:39;;;;;;;5.78;2.60;;;18.60;99.90;;;;;;5105516;28;20020;-83
2021/08/27 08:09:06;;;;;;;5.70;3.00;;;18.60;99.90;;;;;;5105054;28;20207;-82
2021/08/27 08:11:32;;;;;;;6.38;2.25;;;18.60;99.90;;;;;;5105150;28;20344;-83
2021/08/27 08:14:00;;;;;;;10.30;2.45;;;18.70;99.90;;;;;;5105440;28;20024;-82
2021/08/27 08:16:26;;;;;;;7.28;2.65;;;18.70;99.90;;;;;;5091087;28;20024;-83
2021/08/27 08:18:52;;;;;;;8.25;2.80;;;18.80;99.90;;;;;;5104321;28;20092;-83
2021/08/27 08:21:22;;;;;;;6.38;2.15;;;18.70;99.90;;;;;;5104356;28;20122;-83
2021/08/27 08:23:49;;;;;;;6.30;2.50;;;18.70;99.90;;;;;;5104619;28;20099;-82
2021/08/27 08:26:15;;;;;;;6.53;2.58;;;18.80;99.90;;;;;;5104901;28;20450;-82
2021/08/27 08:28:40;;;;;;;6.60;2.00;;;18.90;99.90;;;;;;5087055;28;20039;-83
2021/08/27 08:31:06;;;;;;;10.48;2.85;;;19.00;99.90;;;;;;5089080;28;20316;-83
2021/08/27 08:33:31;;;;;;;6.25;2.40;;;19.10;99.90;;;;;;5062945;28;20310;-83
2021/08/27 08:35:57;;;;;;;9.40;2.55;;;19.20;99.90;;;;;;5073132;28;20012;-82
2021/08/27 08:38:24;;;;;;;7.47;2.50;;;19.40;99.90;;;;;;5084362;28;20024;-83
2021/08/27 08:40:50;;;;;;;9.00;2.63;;;19.60;99.90;;;;;;5066224;28;20038;-83
2021/08/27 08:43:17;;;;;;;8.98;2.67;;;19.70;99.90;;;;;;5071039;28;20076;-82
2021/08/27 08:45:48;;;;;;;6.88;2.72;;;19.80;99.90;;;;;;5083214;28;20075;-82
2021/08/27 08:48:19;;;;;;;11.23;3.40;;;19.90;99.90;;;;;;5083583;28;20036;-83
2021/08/27 08:50:45;;;;;;;7.30;2.72;;;20.00;99.90;;;;;;5083884;28;20078;-83
2021/08/27 08:53:11;;;;;;;8.25;2.90;;;20.10;99.90;;;;;;5084030;28;20096;-83
2021/08/27 08:55:39;;;;;;;6.88;3.22;;;20.20;99.90;;;;;;5084479;28;20078;-83
2021/08/27 08:58:05;;;;;;;9.60;2.63;;;20.20;99.90;;;;;;5075102;28;20305;-83
2021/08/27 09:00:32;;;;;;;7.20;2.30;;;20.30;99.90;;;;;;5078114;28;20029;-82
2021/08/27 09:03:03;;;;;;;4.72;2.10;;;20.30;99.90;;;;;;5053718;28;20039;-83
2021/08/27 09:05:29;;;;;;;9.45;2.45;;;20.40;99.90;;;;;;5083357;28;20052;-83
2021/08/27 09:07:55;;;;;;;7.63;2.17;;;20.40;99.90;;;;;;5083695;28;20047;-82
2021/08/27 09:10:21;;;;;;;8.85;2.35;;;20.40;99.90;;;;;;5084103;28;20355;-82
2021/08/27 09:12:48;;;;;;;4.75;2.10;;;20.40;99.90;;;;;;5083328;28;20289;-82
2021/08/27 09:15:17;;;;;;;10.70;2.33;;;20.50;99.90;;;;;;5066220;28;20181;-83
2021/08/27 09:17:48;;;;;;;4.05;1.98;;;20.50;99.90;;;;;;5079420;28;20085;-82
2021/08/27 09:20:23;;;;;;;6.10;2.30;;;20.70;99.90;;;;;;5083371;28;20048;-83
2021/08/27 09:23:00;;;;;;;6.60;2.00;;;20.90;99.90;;;;;;5083430;28;20038;-83
2021/08/27 09:25:32;;;;;;;4.95;2.03;;;20.90;99.90;;;;;;5083371;28;20026;-82
2021/08/27 09:28:09;;;;;;;4.75;1.50;;;21.00;99.70;;;;;;5083620;28;20020;-82
2021/08/27 09:30:39;;;;;;;6.72;2.35;;;21.00;99.70;;;;;;5070386;28;20127;-83
2021/08/27 09:33:09;;;;;;;4.43;1.60;;;21.10;99.20;;;;;;5083967;28;20097;-82
2021/08/27 09:35:35;;;;;;;8.90;2.40;;;21.20;99.30;;;;;;5070094;28;20040;-83
2021/08/27 09:38:00;;;;;;;4.32;1.65;;;21.30;99.10;;;;;;5083767;28;20031;-83
2021/08/27 09:40:32;;;;;;;5.82;2.13;;;21.40;98.30;;;;;;5083826;28;20012;-83
2021/08/27 09:42:59;;;;;;;7.75;1.77;;;21.30;97.70;;;;;;5083692;28;20036;-83
2021/08/27 09:45:44;;;;;;;5.05;1.98;;;21.40;97.10;;;;;;5062885;28;20033;-83
2021/08/27 09:48:13;;;;;;;7.28;1.90;;;21.50;96.80;;;;;;5074991;28;20095;-83
2021/08/27 09:50:43;;;;;;;7.55;1.95;;;21.60;96.60;;;;;;5061982;28;20317;-83
2021/08/27 09:53:12;;;;;;;8.80;2.15;;;21.70;96.40;;;;;;5073621;28;20279;-83
2021/08/27 09:55:52;;;;;;;5.30;1.83;;;21.70;95.50;;;;;;5082957;28;20062;-83
2021/08/27 09:58:17;;;;;;;7.43;2.15;;;21.80;95.90;;;;;;5082789;28;20032;-83
2021/08/27 10:00:47;;;;;;;6.22;1.90;;;21.80;95.80;;;;;;5082886;28;20009;-83
2021/08/27 10:03:25;;;;;;;3.60;1.50;;;21.90;95.40;;;;;;5082480;28;20044;-82
2021/08/27 10:05:53;;;;;;;4.25;1.80;;;22.00;94.50;;;;;;5064760;28;20074;-83
2021/08/27 10:08:33;;;;;;;7.78;2.00;;;22.00;94.80;;;;;;5055645;28;20100;-82
2021/08/27 10:11:15;;;;;;;6.97;1.92;;;22.00;93.90;;;;;;5066116;28;20023;-82
2021/08/27 10:13:41;;;;;;;6.15;1.90;;;22.10;94.00;;;;;;5082718;28;20212;-83
2021/08/27 10:16:07;;;;;;;5.30;2.03;;;22.30;93.40;;;;;;5082401;28;20072;-82
2021/08/27 10:18:33;;;;;;;4.68;1.80;;;22.20;92.90;;;;;;5082552;28;20304;-83
2021/08/27 10:20:59;;;;;;;4.75;2.10;;;22.20;93.30;;;;;;5082457;28;20025;-82
2021/08/27 10:23:24;;;;;;;5.70;2.00;;;22.20;93.30;;;;;;5082330;28;20055;-82
2021/08/27 10:25:52;;;;;;;4.07;1.50;;;22.40;93.60;;;;;;5073655;28;20032;-82
2021/08/27 10:28:19;;;;;;;4.50;1.88;;;22.60;92.60;;;;;;5037218;28;20025;-83
2021/08/27 10:30:53;;;;;;;5.63;1.90;;;22.70;92.50;;;;;;5052717;28;20077;-82
2021/08/27 10:33:39;;;;;;;4.75;2.17;;;22.80;92.70;;;;;;5065089;28;20078;-83
2021/08/27 10:36:06;;;;;;;8.82;2.50;;;22.90;91.90;;;;;;5039488;28;20632;-84
2021/08/27 10:38:44;;;;;;;8.30;2.20;;;22.90;91.50;;;;;;5071117;28;20020;-85
2021/08/27 10:41:19;;;;;;;3.95;2.25;;;22.90;90.40;;;;;;5063499;28;20021;-83
2021/08/27 10:43:53;;;;;;;;;;;23.10;90.80;;;;;;5053946;28;20044;-83
2021/08/27 10:46:20;;;;;;;4.63;2.15;;;23.10;89.50;;;;;;5072525;28;20406;-86
2021/08/27 10:48:50;;;;;;;10.68;2.22;;;23.10;86.50;;;;;;5070346;28;20044;-85
2021/08/27 10:51:40;;;;;;;8.77;2.53;;;23.20;88.00;;;;;;5053120;28;20027;-84
2021/08/27 10:54:07;;;;;;;6.00;2.25;;;23.30;87.60;;;;;;5073845;28;20036;-84
2021/08/27 10:56:50;;;;;;;6.70;2.28;;;23.40;87.80;;;;;;5081145;28;20000;-82
2021/08/27 10:59:38;;;;;;;6.72;1.77;;;23.30;88.90;;;;;;5090444;28;20075;-82
2021/08/27 11:02:05;;;;;;;5.63;2.40;;;23.20;89.00;;;;;;5085462;28;20100;-83
2021/08/27 11:04:41;;;;;;;4.82;1.77;;;23.10;90.00;;;;;;5083651;28;20020;-81
2021/08/27 11:07:14;;;;;;;5.32;2.30;;;23.10;89.40;;;;;;5094961;28;20015;-83
2021/08/27 11:09:58;;;;;;;5.30;2.00;;;23.20;87.60;;;;;;5092135;28;20052;-83
2021/08/27 11:12:29;;;;;;;4.30;2.10;;;23.20;87.30;;;;;;5087831;28;20027;-83
2021/08/27 11:14:56;;;;;;;5.72;2.25;;;23.40;86.90;;;;;;5088246;28;20075;-84
2021/08/27 11:17:22;;;;;;;6.07;2.30;;;23.50;86.50;;;;;;5090355;28;20076;-82
2021/08/27 11:19:55;;;;;;;6.13;2.47;;;23.70;86.70;;;;;;5088677;28;20020;-83
2021/08/27 11:22:25;;;;;;;5.25;1.95;;;23.70;85.60;;;;;;5079737;28;20489;-82
2021/08/27 11:25:04;;;;;;;6.60;2.58;;;23.70;84.60;;;;;;5069738;28;20631;-82
2021/08/27 11:27:31;;;;;;;5.70;2.05;;;23.80;84.50;;;;;;5053260;28;20484;-83
2021/08/27 11:30:01;;;;;;;7.32;2.45;;;23.80;83.60;;;;;;5064065;28;20396;-71
2021/08/27 11:32:26;;;;;;;8.60;2.28;;;23.80;84.30;;;;;;5058909;28;20039;-72
2021/08/27 11:35:03;;;;;;;6.53;2.15;;;23.90;84.10;;;;;;5069414;28;20021;-72
2021/08/27 11:37:36;;;;;;;5.38;2.13;;;24.10;82.20;;;;;;5068515;28;20021;-72
2021/08/27 11:40:08;;;;;;;7.50;2.15;;;24.20;82.60;;;;;;5066704;28;20039;-72
2021/08/27 11:42:35;;;;;;;5.35;2.10;;;24.20;83.70;;;;;;5049055;28;20488;-72
2021/08/27 11:45:07;;;;;;;6.13;2.28;;;24.30;82.20;;;;;;5069273;28;20225;-72
2021/08/27 11:47:46;;;;;;;7.70;2.35;;;24.40;81.20;;;;;;5068745;28;20103;-71
2021/08/27 11:50:28;;;;;;;7.03;2.22;;;24.30;81.40;;;;;;5069381;28;20158;-71
2021/08/27 11:52:59;;;;;;;5.07;2.00;;;24.10;80.10;;;;;;5070321;28;20130;-71
2021/08/27 11:55:26;;;;;;;7.07;2.40;;;24.10;79.40;;;;;;5067411;28;20477;-72
2021/08/27 11:58:00;;;;;;;7.75;2.35;;;24.10;80.50;;;;;;5068573;28;20484;-72
2021/08/27 12:00:42;;;;;;;5.32;2.20;;;24.30;79.30;;;;;;5073596;28;20033;-72
2021/08/27 12:03:11;;;;;;;6.68;2.65;;;24.50;80.10;;;;;;5079150;28;20055;-80
2021/08/27 12:05:37;;;;;;;7.97;2.45;;;24.70;80.50;;;;;;5078905;28;20033;-74
2021/08/27 12:08:05;;;;;;;4.53;1.88;;;24.80;78.60;;;;;;5078544;28;20244;-73
2021/08/27 12:10:35;;;;;;;6.88;2.58;;;25.10;77.30;;;;;;5077965;28;20020;-73
2021/08/27 12:13:03;;;;;;;6.38;2.55;;;25.20;76.60;;;;;;5078779;28;20076;-73
2021/08/27 12:15:35;;;;;;;6.25;2.55;;;25.10;77.10;;;;;;5078665;28;20024;-73
2021/08/27 12:18:06;;;;;;;7.43;2.55;;;25.30;77.30;;;;;;5059484;28;20091;-75
2021/08/27 12:20:46;;;;;;;10.18;2.58;;;25.30;76.90;;;;;;5077944;28;20257;-73
2021/08/27 12:23:22;;;;;;;8.50;2.50;;;25.30;75.80;;;;;;5071725;28;20395;-73
2021/08/27 12:26:07;;;;;;;7.82;2.63;;;25.30;74.70;;;;;;5078724;28;20350;-74
2021/08/27 12:28:36;;;;;;;4.57;1.90;;;25.30;76.10;;;;;;5079896;28;20253;-73
2021/08/27 12:31:02;;;;;;;6.63;2.70;;;25.50;74.80;;;;;;5079111;28;20045;-73
2021/08/27 12:33:29;;;;;;;5.72;2.10;;;25.50;74.90;;;;;;5079552;28;20029;-73
2021/08/27 12:35:55;;;;;;;6.95;2.30;;;25.60;75.10;;;;;;5074419;28;20491;-74
2021/08/27 12:38:22;;;;;;;7.90;2.78;;;25.50;74.70;;;;;;5070772;28;20063;-78
2021/08/27 12:40:49;;;;;;;4.38;2.30;;;25.50;73.80;;;;;;5075144;28;20087;-79
2021/08/27 12:43:20;;;;;;;7.00;2.55;;;25.70;75.00;;;;;;5073570;28;20042;-74
2021/08/27 12:45:53;;;;;;;4.22;2.30;;;25.70;73.40;;;;;;5072841;28;20099;-73
2021/08/27 12:48:25;;;;;;;7.50;2.67;;;25.70;74.10;;;;;;5073302;28;20020;-74
2021/08/27 12:50:57;;;;;;;9.65;2.88;;;25.90;74.00;;;;;;5073618;28;20044;-73
2021/08/27 12:53:30;;;;;;;7.53;2.42;;;26.00;72.60;;;;;;5078016;28;20086;-74